createdAt,value
2019-04-07T00:00:43.648Z,66.50
2019-04-07T00:03:12.940Z,61.47
2019-04-07T00:05:42.577Z,58.97
2019-04-07T00:08:12.690Z,67.93
2019-04-07T00:10:42.471Z,60.87
2019-04-07T00:13:12.411Z,62.73
2019-04-07T00:15:41.580Z,60.03
2019-04-07T00:18:10.740Z,68.47
2019-04-07T00:20:42.012Z,66.73
2019-04-07T00:23:13.171Z,61.70
2019-04-07T00:25:42.994Z,66.70
2019-04-07T00:28:12.192Z,66.30
2019-04-07T00:30:41.452Z,63.70
2019-04-07T00:33:11.278Z,64.20
2019-04-07T00:35:40.487Z,64.50
2019-04-07T00:38:09.690Z,70.87
2019-04-07T00:40:39.161Z,67.50
2019-04-07T00:43:08.798Z,68.33
2019-04-07T00:45:38.010Z,76.77
2019-04-07T00:48:07.733Z,66.97
2019-04-07T00:50:37.032Z,64.97
2019-04-07T00:53:07.819Z,72.67
2019-04-07T00:55:37.487Z,72.00
2019-04-07T00:58:07.128Z,75.63
2019-04-07T01:00:38.808Z,75.80
2019-04-07T01:03:08.388Z,79.97
2019-04-07T01:05:40.503Z,78.10
2019-04-07T01:08:08.499Z,76.50
2019-04-07T01:10:38.061Z,81.97
2019-04-07T01:13:07.705Z,79.90
2019-04-07T01:15:39.747Z,87.17
2019-04-07T01:18:08.920Z,85.00
2019-04-07T01:20:38.161Z,85.10
2019-04-07T01:23:08.103Z,82.50
2019-04-07T01:25:37.888Z,85.93
2019-04-07T01:28:07.151Z,85.87
2019-04-07T01:30:37.077Z,83.70
2019-04-07T01:33:06.465Z,79.57
2019-04-07T01:35:45.084Z,82.63
2019-04-07T01:38:07.195Z,85.57
2019-04-07T01:40:37.435Z,78.23
2019-04-07T01:43:12.795Z,81.23
2019-04-07T01:45:56.206Z,78.73
2019-04-07T01:48:44.762Z,75.73
2019-04-07T01:51:32.217Z,80.53
2019-04-07T01:54:24.058Z,73.60
2019-04-07T01:57:18.452Z,79.13
2019-04-07T02:00:22.654Z,80.30
2019-04-07T02:03:10.947Z,71.47
2019-04-07T02:06:04.469Z,74.77
2019-04-07T02:09:04.830Z,84.20
2019-04-07T02:12:05.960Z,88.60
2019-04-07T02:14:54.869Z,78.50
2019-04-07T02:17:43.922Z,79.23
2019-04-07T02:20:50.809Z,83.13
2019-04-07T02:23:28.206Z,78.90
2019-04-07T02:26:19.380Z,78.77
2019-04-07T02:29:08.025Z,81.43
2019-04-07T02:31:46.206Z,88.90
2019-04-07T02:34:22.093Z,83.10
2019-04-07T02:37:04.687Z,82.03
2019-04-07T02:39:50.677Z,91.07
2019-04-07T02:42:38.364Z,78.77
2019-04-07T02:45:17.763Z,88.23
2019-04-07T02:48:12.539Z,83.10
2019-04-07T02:50:47.843Z,82.77
2019-04-07T02:53:42.001Z,81.70
2019-04-07T02:56:33.681Z,79.17
2019-04-07T02:59:34.309Z,80.33
2019-04-07T03:02:20.736Z,77.07
2019-04-07T03:05:08.142Z,81.37
2019-04-07T03:07:53.155Z,79.47
2019-04-07T03:10:29.127Z,74.83
2019-04-07T03:13:16.846Z,80.23
2019-04-07T03:16:00.845Z,83.67
2019-04-07T03:18:39.078Z,82.90
2019-04-07T03:21:26.784Z,79.37
2019-04-07T03:24:27.039Z,83.37
2019-04-07T03:27:22.070Z,78.53
2019-04-07T03:30:13.988Z,74.50
2019-04-07T03:33:05.816Z,82.43
2019-04-07T03:36:18.624Z,79.23
2019-04-07T03:39:07.449Z,79.43
2019-04-07T03:41:45.805Z,78.33
2019-04-07T03:44:26.645Z,79.77
2019-04-07T03:47:10.322Z,85.93
2019-04-07T03:49:59.711Z,78.20
2019-04-07T03:52:36.712Z,82.30
2019-04-07T03:55:21.358Z,75.83
2019-04-07T03:58:08.609Z,79.67
2019-04-07T04:01:22.305Z,81.60
2019-04-07T04:04:05.490Z,75.07
2019-04-07T04:06:53.440Z,79.33
2019-04-07T04:09:32.435Z,77.87
2019-04-07T04:12:30.094Z,73.80
2019-04-07T04:15:03.595Z,78.93
2019-04-07T04:17:36.145Z,78.73
2019-04-07T04:20:07.207Z,75.07
2019-04-07T04:22:37.741Z,74.40
2019-04-07T04:25:08.501Z,71.90
2019-04-07T04:27:38.825Z,75.30
2019-04-07T04:30:10.275Z,76.97
2019-04-07T04:32:40.007Z,79.47
2019-04-07T04:35:10.902Z,75.63
2019-04-07T04:37:46.605Z,79.63
2019-04-07T04:40:14.053Z,74.97
2019-04-07T04:42:45.265Z,78.93
2019-04-07T04:45:14.436Z,69.23
2019-04-07T04:47:43.614Z,72.83
2019-04-07T04:50:12.949Z,79.97
2019-04-07T04:52:42.802Z,83.33
2019-04-07T04:55:12.043Z,78.53
2019-04-07T04:57:41.229Z,80.60
2019-04-07T05:00:10.703Z,72.33
2019-04-07T05:02:39.862Z,70.60
2019-04-07T05:05:09.952Z,74.37
2019-04-07T05:07:49.784Z,73.30
2019-04-07T05:10:11.124Z,74.43
2019-04-07T05:12:42.003Z,72.77
2019-04-07T05:15:11.937Z,73.00
2019-04-07T05:17:41.914Z,70.87
2019-04-07T05:20:12.341Z,74.27
2019-04-07T05:22:42.169Z,78.43
2019-04-07T05:25:12.039Z,76.87
2019-04-07T05:27:41.612Z,69.67
2019-04-07T05:30:11.237Z,74.83
2019-04-07T05:32:41.034Z,76.23
2019-04-07T05:35:10.867Z,69.60
2019-04-07T05:37:40.628Z,70.20
2019-04-07T05:40:11.323Z,65.53
2019-04-07T05:42:40.581Z,68.97
2019-04-07T05:45:10.168Z,64.73
2019-04-07T05:47:47.298Z,62.87
2019-04-07T05:50:14.449Z,63.80
2019-04-07T05:52:43.739Z,67.93
2019-04-07T05:55:13.070Z,62.77
2019-04-07T05:57:42.305Z,62.53
2019-04-07T06:00:15.582Z,60.37
2019-04-07T06:02:45.780Z,61.67
2019-04-07T06:05:17.452Z,61.67
2019-04-07T06:07:47.110Z,58.03
2019-04-07T06:10:16.747Z,57.93
2019-04-07T06:12:47.389Z,60.10
2019-04-07T06:15:21.016Z,56.30
2019-04-07T06:17:48.016Z,54.07
2019-04-07T06:20:20.094Z,54.80
2019-04-07T06:22:53.625Z,52.30
2019-04-07T06:25:21.638Z,52.20
2019-04-07T06:27:51.024Z,51.73
2019-04-07T06:30:22.030Z,51.40
2019-04-07T06:32:51.573Z,52.80
2019-04-07T06:35:24.266Z,46.00
2019-04-07T06:37:55.790Z,46.13
2019-04-07T06:40:24.534Z,43.27
2019-04-07T06:42:53.726Z,45.17
2019-04-07T06:45:26.362Z,45.93
2019-04-07T06:47:57.728Z,43.80
2019-04-07T06:50:56.629Z,45.03
2019-04-07T06:53:41.493Z,42.93
2019-04-07T06:56:34.269Z,42.80
2019-04-07T06:59:28.488Z,42.30
2019-04-07T07:02:19.642Z,39.65
2019-04-07T07:05:08.442Z,39.83
2019-04-07T07:07:57.302Z,39.85
2019-04-07T07:10:38.995Z,39.53
2019-04-07T07:13:35.334Z,37.93
2019-04-07T07:16:23.899Z,38.20
2019-04-07T07:19:18.461Z,37.60
2019-04-07T07:22:13.177Z,38.50
2019-04-07T07:24:40.711Z,37.65
2019-04-07T07:27:11.374Z,37.78
2019-04-07T07:29:41.026Z,36.77
2019-04-07T07:32:10.290Z,36.45
2019-04-07T07:34:42.004Z,36.48
2019-04-07T07:37:10.635Z,36.03
2019-04-07T07:39:42.617Z,36.38
2019-04-07T07:42:11.424Z,35.85
2019-04-07T07:44:41.813Z,35.77
2019-04-07T07:47:11.874Z,36.42
2019-04-07T07:49:42.306Z,34.95
2019-04-07T07:52:11.732Z,34.25
2019-04-07T07:54:42.149Z,34.58
2019-04-07T07:57:14.426Z,34.77
2019-04-07T07:59:44.049Z,34.33
2019-04-07T08:02:16.784Z,33.30
2019-04-07T08:04:44.910Z,31.93
2019-04-07T08:07:16.487Z,34.65
2019-04-07T08:09:47.051Z,33.50
2019-04-07T08:12:16.396Z,34.00
2019-04-07T08:14:49.579Z,33.92
2019-04-07T08:17:17.257Z,34.20
2019-04-07T08:19:46.689Z,33.30
2019-04-07T08:22:27.303Z,33.10
2019-04-07T08:24:51.992Z,33.73
2019-04-07T08:27:21.669Z,33.47
2019-04-07T08:29:51.083Z,32.40
2019-04-07T08:32:24.264Z,33.67
2019-04-07T08:34:51.565Z,32.97
2019-04-07T08:37:21.240Z,32.05
2019-04-07T08:39:52.507Z,32.15
2019-04-07T08:42:22.577Z,32.23
2019-04-07T08:44:51.971Z,31.57
2019-04-07T08:47:23.129Z,28.57
2019-04-07T08:49:55.430Z,31.23
2019-04-07T08:52:26.010Z,30.52
2019-04-07T08:54:55.587Z,30.25
2019-04-07T08:57:27.270Z,29.77
2019-04-07T08:59:56.260Z,29.55
2019-04-07T09:02:28.454Z,30.50
2019-04-07T09:04:56.936Z,28.80
2019-04-07T09:07:26.638Z,28.73
2019-04-07T09:09:56.610Z,29.37
2019-04-07T09:12:28.888Z,26.67
2019-04-07T09:14:57.004Z,27.00
2019-04-07T09:17:51.154Z,25.77
2019-04-07T09:20:42.397Z,29.03
2019-04-07T09:23:29.480Z,27.33
2019-04-07T09:26:16.074Z,25.77
2019-04-07T09:29:07.175Z,27.37
2019-04-07T09:31:57.610Z,26.27
2019-04-07T09:35:07.143Z,26.70
2019-04-07T09:37:48.198Z,27.55
2019-04-07T09:40:25.504Z,27.40
2019-04-07T09:43:01.199Z,28.38
2019-04-07T09:46:03.417Z,27.50
2019-04-07T09:48:57.683Z,26.57
2019-04-07T09:51:58.298Z,26.77
2019-04-07T09:54:54.628Z,27.10
2019-04-07T09:57:42.209Z,25.90
2019-04-07T10:00:39.901Z,25.48
2019-04-07T10:03:20.502Z,24.65
2019-04-07T10:06:23.972Z,24.98
2019-04-07T10:09:24.306Z,24.47
2019-04-07T10:12:18.574Z,25.48
2019-04-07T10:15:12.956Z,24.20
2019-04-07T10:17:50.569Z,23.80
2019-04-07T10:20:38.412Z,23.05
2019-04-07T10:23:25.438Z,23.73
2019-04-07T10:26:05.232Z,24.05
2019-04-07T10:28:53.209Z,25.05
2019-04-07T10:31:28.369Z,26.02
2019-04-07T10:34:14.969Z,25.10
2019-04-07T10:37:04.877Z,25.87
2019-04-07T10:39:48.419Z,27.62
2019-04-07T10:42:45.904Z,27.40
2019-04-07T10:45:33.105Z,27.13
2019-04-07T10:48:13.448Z,26.10
2019-04-07T10:51:01.794Z,26.02
2019-04-07T10:53:58.925Z,25.80
2019-04-07T10:56:34.441Z,26.77
2019-04-07T10:59:34.516Z,25.00
2019-04-07T11:02:21.582Z,26.75
2019-04-07T11:05:08.539Z,27.87
2019-04-07T11:08:06.092Z,26.80
2019-04-07T11:10:45.279Z,26.93
2019-04-07T11:13:36.577Z,26.40
2019-04-07T11:16:24.769Z,27.02
2019-04-07T11:19:13.116Z,25.95
2019-04-07T11:22:04.614Z,24.03
2019-04-07T11:24:59.154Z,22.63
2019-04-07T11:27:53.972Z,22.03
2019-04-07T11:30:40.901Z,20.50
2019-04-07T11:33:35.070Z,21.30
2019-04-07T11:36:31.003Z,22.80
2019-04-07T11:39:23.070Z,23.87
2019-04-07T11:42:13.142Z,21.00
2019-04-07T11:44:58.547Z,22.87
2019-04-07T11:47:50.145Z,23.60
2019-04-07T11:50:35.061Z,28.47
2019-04-07T11:53:30.083Z,22.67
2019-04-07T11:56:11.693Z,24.57
2019-04-07T11:59:00.683Z,22.97
2019-04-07T12:01:50.109Z,25.20
2019-04-07T12:04:38.006Z,23.03
2019-04-07T12:07:35.557Z,24.90
2019-04-07T12:10:28.919Z,23.30
2019-04-07T12:13:20.096Z,22.00
2019-04-07T12:16:17.668Z,22.43
2019-04-07T12:18:55.906Z,21.73
2019-04-07T12:21:56.659Z,22.43
2019-04-07T12:24:45.550Z,23.75
2019-04-07T12:27:34.563Z,22.93
2019-04-07T12:30:14.368Z,22.90
2019-04-07T12:32:56.285Z,21.60
2019-04-07T12:35:34.023Z,21.40
2019-04-07T12:41:23.431Z,21.37
2019-04-07T12:44:12.603Z,19.90
2019-04-07T12:47:13.472Z,18.50
2019-04-07T12:50:05.174Z,20.43
2019-04-07T12:52:51.885Z,17.20
2019-04-07T12:55:30.431Z,18.17
2019-04-07T12:58:10.782Z,18.27
2019-04-07T13:01:03.756Z,17.90
2019-04-07T13:03:40.793Z,18.37
2019-04-07T13:06:28.750Z,18.77
2019-04-07T13:09:27.814Z,19.30
2019-04-07T13:12:13.986Z,18.77
2019-04-07T13:15:03.430Z,21.87
2019-04-07T13:17:42.402Z,18.33
2019-04-07T13:20:37.255Z,17.60
2019-04-07T13:23:16.582Z,22.23
2019-04-07T13:25:56.350Z,17.13
2019-04-07T13:28:33.118Z,18.67
2019-04-07T13:31:27.662Z,14.97
2019-04-07T13:34:09.403Z,18.03
2019-04-07T13:37:17.476Z,19.73
2019-04-07T13:40:05.075Z,17.47
2019-04-07T13:42:43.043Z,17.77
2019-04-07T13:45:27.977Z,16.37
2019-04-07T13:48:24.056Z,15.87
2019-04-07T13:51:11.045Z,15.37
2019-04-07T13:54:05.771Z,15.30
2019-04-07T13:57:03.383Z,15.30
2019-04-07T14:00:07.676Z,13.63
2019-04-07T14:02:50.625Z,15.90
2019-04-07T14:05:32.088Z,15.97
2019-04-07T14:08:30.712Z,19.50
2019-04-07T14:11:17.631Z,15.97
2019-04-07T14:14:26.742Z,15.20
2019-04-07T14:17:24.754Z,15.87
2019-04-07T14:20:24.461Z,15.43
2019-04-07T14:23:16.461Z,16.40
2019-04-07T14:26:12.520Z,17.73
2019-04-07T14:28:58.775Z,15.33
2019-04-07T14:31:42.436Z,16.10
2019-04-07T14:34:50.984Z,16.37
2019-04-07T14:37:38.328Z,18.20
2019-04-07T14:40:38.885Z,15.90
2019-04-07T14:43:15.771Z,16.57
2019-04-07T14:46:00.097Z,18.57
2019-04-07T14:48:54.445Z,18.40
2019-04-07T14:51:42.793Z,18.33
2019-04-07T14:54:29.628Z,17.33
2019-04-07T14:57:10.460Z,17.13
2019-04-07T14:59:58.994Z,16.83
2019-04-07T15:02:30.167Z,15.37
2019-04-07T15:05:06.441Z,17.30
2019-04-07T15:07:47.044Z,14.80
2019-04-07T15:10:23.332Z,43.63
2019-04-07T15:12:55.792Z,33.43
2019-04-07T15:15:26.853Z,14.27
2019-04-07T15:17:56.262Z,15.57
2019-04-07T15:20:25.479Z,18.07
2019-04-07T15:22:58.393Z,20.33
2019-04-07T15:25:27.685Z,19.60
2019-04-07T15:27:58.918Z,25.53
2019-04-07T15:30:27.659Z,21.70
2019-04-07T15:32:58.525Z,15.17
2019-04-07T15:35:27.769Z,18.73
2019-04-07T15:37:58.067Z,15.47
2019-04-07T15:40:30.828Z,22.30
2019-04-07T15:43:03.915Z,19.10
2019-04-07T15:45:30.963Z,19.77
2019-04-07T15:48:00.696Z,19.37
2019-04-07T15:50:30.643Z,20.00
2019-04-07T15:53:00.508Z,23.23
2019-04-07T15:55:43.207Z,21.23
2019-04-07T15:58:00.737Z,15.67
2019-04-07T16:00:32.314Z,22.37
2019-04-07T16:03:02.403Z,16.43
2019-04-07T16:05:37.783Z,14.83
2019-04-07T16:08:04.248Z,15.10
2019-04-07T16:10:33.791Z,14.53
2019-04-07T16:13:03.050Z,14.70
2019-04-07T16:15:32.246Z,14.33
2019-04-07T16:18:05.424Z,14.20
2019-04-07T16:20:38.021Z,20.17
2019-04-07T16:23:05.792Z,14.33
2019-04-07T16:25:34.956Z,14.50
2019-04-07T16:28:04.322Z,15.90
2019-04-07T16:30:34.025Z,15.10
2019-04-07T16:33:05.474Z,14.80
2019-04-07T16:35:34.568Z,14.60
2019-04-07T16:38:03.891Z,16.53
2019-04-07T16:40:33.941Z,18.07
2019-04-07T16:43:11.544Z,15.37
2019-04-07T16:45:34.207Z,14.23
2019-04-07T16:48:04.977Z,15.73
2019-04-07T16:50:35.057Z,14.97
2019-04-07T16:53:06.585Z,15.30
2019-04-07T16:55:41.614Z,14.33
2019-04-07T16:58:11.817Z,15.70
2019-04-07T17:00:41.957Z,16.30
2019-04-07T17:03:13.218Z,16.37
2019-04-07T17:05:43.079Z,16.17
2019-04-07T17:08:12.942Z,14.57
2019-04-07T17:10:42.439Z,15.13
2019-04-07T17:13:19.640Z,15.65
2019-04-07T17:15:43.210Z,15.07
2019-04-07T17:18:41.564Z,16.10
2019-04-07T17:21:18.383Z,14.90
2019-04-07T17:23:48.077Z,17.10
2019-04-07T17:26:18.542Z,16.50
2019-04-07T17:28:50.034Z,17.47
2019-04-07T17:31:20.863Z,14.80
2019-04-07T17:33:50.867Z,17.10
2019-04-07T17:36:22.658Z,18.87
2019-04-07T17:39:14.848Z,24.00
2019-04-07T17:41:48.332Z,15.70
2019-04-07T17:44:41.391Z,18.60
2019-04-07T17:47:35.456Z,15.97
2019-04-07T17:50:38.959Z,14.80
2019-04-07T17:53:27.053Z,15.90
2019-04-07T17:56:07.332Z,17.63
2019-04-07T17:59:04.591Z,16.97
2019-04-07T18:01:54.399Z,17.00
2019-04-07T18:04:57.133Z,13.43
2019-04-07T18:07:38.231Z,13.33
2019-04-07T18:10:27.728Z,15.33
2019-04-07T18:13:22.688Z,15.17
2019-04-07T18:16:06.349Z,13.83
2019-04-07T18:18:56.230Z,13.47
2019-04-07T18:21:51.663Z,14.47
2019-04-07T18:24:34.131Z,15.33
2019-04-07T18:27:21.146Z,14.47
2019-04-07T18:29:59.628Z,14.93
2019-04-07T18:32:49.402Z,13.43
2019-04-07T18:35:34.816Z,17.43
2019-04-07T18:38:30.418Z,15.03
2019-04-07T18:41:34.033Z,16.20
2019-04-07T18:44:18.324Z,17.60
2019-04-07T18:47:10.548Z,15.80
2019-04-07T18:50:04.067Z,13.70
2019-04-07T18:52:46.840Z,16.53
2019-04-07T18:55:37.134Z,16.80
2019-04-07T18:58:31.249Z,14.90
2019-04-07T19:01:25.273Z,13.90
2019-04-07T19:04:04.565Z,18.80
2019-04-07T19:06:50.928Z,19.73
2019-04-07T19:09:45.559Z,18.13
2019-04-07T19:12:23.103Z,16.40
2019-04-07T19:15:22.132Z,17.87
2019-04-07T19:18:11.874Z,15.53
2019-04-07T19:20:59.183Z,18.63
2019-04-07T19:23:50.800Z,17.33
2019-04-07T19:26:31.486Z,14.37
2019-04-07T19:29:21.497Z,18.50
2019-04-07T19:32:09.607Z,17.00
2019-04-07T19:35:13.211Z,15.63
2019-04-07T19:37:53.954Z,15.37
2019-04-07T19:40:49.257Z,17.33
2019-04-07T19:43:46.707Z,16.03
2019-04-07T19:46:33.700Z,18.47
2019-04-07T19:49:25.533Z,16.77
2019-04-07T19:52:14.132Z,18.07
2019-04-07T19:54:53.272Z,19.90
2019-04-07T19:57:33.068Z,16.53
2019-04-07T20:00:26.145Z,16.47
2019-04-07T20:03:11.459Z,18.07
2019-04-07T20:06:00.842Z,16.67
2019-04-07T20:08:56.300Z,20.67
2019-04-07T20:11:53.207Z,19.80
2019-04-07T20:14:58.582Z,24.57
2019-04-07T20:17:38.865Z,16.57
2019-04-07T20:20:25.841Z,17.07
2019-04-07T20:23:18.817Z,20.87
2019-04-07T20:26:06.558Z,19.63
2019-04-07T20:28:47.558Z,19.43
2019-04-07T20:31:38.727Z,21.87
2019-04-07T20:34:13.979Z,21.63
2019-04-07T20:37:01.819Z,17.80
2019-04-07T20:40:00.165Z,19.33
2019-04-07T20:42:57.465Z,20.20
2019-04-07T20:45:54.005Z,19.17
2019-04-07T20:48:41.137Z,23.90
2019-04-07T20:51:28.096Z,18.07
2019-04-07T20:54:15.294Z,20.13
2019-04-07T20:57:03.009Z,17.60
2019-04-07T20:59:55.169Z,18.90
2019-04-07T21:03:06.535Z,21.57
2019-04-07T21:05:53.507Z,20.53
2019-04-07T21:08:40.709Z,19.83
2019-04-07T21:11:17.511Z,19.83
2019-04-07T21:14:23.955Z,20.07
2019-04-07T21:17:01.618Z,21.17
2019-04-07T21:19:52.956Z,19.30
2019-04-07T21:22:31.452Z,21.40
2019-04-07T21:25:31.832Z,22.17
2019-04-07T21:28:08.913Z,20.17
2019-04-07T21:30:57.848Z,18.33
2019-04-07T21:33:50.730Z,22.70
2019-04-07T21:36:45.208Z,21.67
2019-04-07T21:39:32.981Z,20.73
2019-04-07T21:42:30.765Z,22.27
2019-04-07T21:45:37.168Z,22.40
2019-04-07T21:48:28.668Z,22.10
2019-04-07T21:51:16.631Z,24.47
2019-04-07T21:54:01.251Z,24.73
2019-04-07T21:56:46.078Z,19.37
2019-04-07T21:59:37.380Z,19.97
2019-04-07T22:02:24.233Z,22.77
2019-04-07T22:05:05.014Z,23.27
2019-04-07T22:08:03.781Z,18.97
2019-04-07T22:10:30.693Z,20.47
2019-04-07T22:13:03.672Z,21.57
2019-04-07T22:15:41.483Z,20.10
2019-04-07T22:18:06.282Z,21.40
2019-04-07T22:20:32.838Z,21.17
2019-04-07T22:23:04.048Z,19.73
2019-04-07T22:25:36.151Z,22.03
2019-04-07T22:28:06.198Z,20.27
2019-04-07T22:30:39.246Z,22.07
2019-04-07T22:33:06.263Z,23.03
2019-04-07T22:35:38.315Z,20.97
2019-04-07T22:38:07.226Z,22.03
2019-04-07T22:40:39.038Z,24.43
2019-04-07T22:43:07.679Z,23.00
2019-04-07T22:45:37.175Z,21.70
2019-04-07T22:48:08.267Z,20.70
2019-04-07T22:50:38.838Z,23.17
2019-04-07T22:53:09.370Z,23.63
2019-04-07T22:55:38.770Z,19.13
2019-04-07T22:58:07.935Z,21.47
2019-04-07T23:00:37.155Z,23.70
2019-04-07T23:03:06.310Z,22.43
2019-04-07T23:05:35.477Z,22.23
2019-04-07T23:08:04.712Z,22.83
2019-04-07T23:10:33.968Z,23.97
2019-04-07T23:13:03.647Z,22.13
2019-04-07T23:15:42.274Z,20.67
2019-04-07T23:18:04.067Z,22.17
2019-04-07T23:20:33.389Z,21.93
2019-04-07T23:23:02.738Z,21.50
2019-04-07T23:25:32.270Z,21.07
2019-04-07T23:28:02.712Z,21.80
2019-04-07T23:30:31.953Z,19.47
2019-04-07T23:33:01.871Z,21.93
2019-04-07T23:35:32.989Z,19.37
2019-04-07T23:38:03.663Z,20.63
2019-04-07T23:40:33.004Z,22.80
2019-04-07T23:43:02.644Z,20.87
2019-04-07T23:45:31.844Z,21.10
2019-04-07T23:48:02.590Z,22.60
2019-04-07T23:50:31.749Z,21.37
2019-04-07T23:53:21.808Z,23.40
2019-04-07T23:55:52.079Z,23.63
2019-04-07T23:58:21.520Z,22.10
